Abercrombie, ND (58001)

7:57 PM CDT on July 10, 2014 (GMT -0500)
NDDOT Wahpeton ND 13 MP 384.5 (MND017) Elev 962 ft | 46.23 °N, 96.74 °W | Change Station

Current weather conditions updated 47 minutes ago

Mostly Cloudy
Mostly Cloudy
76 °F
Feels Like 76 °F
N
5
Wind Variable Wind from SSE
Gusts 6.0 mph

Tomorrow is forecast to be Warmer than today.

Today
High -- | Low -- °F
--% Chance of Precip.
Yesterday
High -- | Low -- °F
Precip. -- in
5:44 AM 9:19 PM
Waxing Gibbous, 97% visible
Pressure 29.85 in
Visibility 10.0 miles
Clouds Scattered Clouds 2900 ft
Scattered Clouds 6000 ft
Mostly Cloudy 8500 ft
Heat Index 76 °F
Dew Point 71 °F
Humidity 87%
Rainfall -999.00 in
Snow Depth Not available.
UV 1 out of 12
Pollen 4.70 out of 12
Air Quality Not available.
Flu Activity Sporadic
METAR KBWP 110030Z AUTO 16007KT 10SM SCT029 SCT060 BKN085 23/18 A2985 RMK AO1

More Conditions Fewer Conditions

Pressure 29.85 in
Visibility 10.0 miles
Clouds Scattered Clouds 2900 ft
Scattered Clouds 6000 ft
Mostly Cloudy 8500 ft
Heat Index 76 °F
Dew Point 71 °F
Humidity 87%
Rainfall -999.00 in
Snow Depth Not available.
UV 1 out of 12
Pollen 4.70 out of 12
Air Quality Not available.
Flu Activity Sporadic
METAR KBWP 110030Z AUTO 16007KT 10SM SCT029 SCT060 BKN085 23/18 A2985 RMK AO1

More Conditions Fewer Conditions

10-Day Weather Forecast

Almanac

Astronomy

Jul. 10, 2014 Rise Set
Actual Time 5:44 AM CDT 9:19 PM CDT
Civil Twilight 5:06 AM CDT 9:57 PM CDT
Nautical Twilight 4:16 AM CDT 10:47 PM CDT
Astronomical Twilight 3:08 AM CDT 11:54 PM CDT
Moon 7:29 PM CDT (7/10) 4:01 AM CDT (7/10)
Length of Visible Light 16h 50m
Length of Day
15h 34m
Tomorrow will be 1m 29s shorter.
Waxing Gibbous, 97% of the Moon is Illuminated
Today
Waxing Gibbous
Jul 12
Full
Jul 18
Last Quarter
Jul 26
New
Aug 3
First Quarter

Today's Extremes

State Highs State Lows

Community

WunderPhotos

Upload Photos

1,732,316 photos uploaded!

Nearby

Snow Depth

Station Depth Elevation
No new snow has been reported.

Earthquake Activity

City Distance Mag. Time & Date
No recent earthquake activity has been reported nearby.
Minimum magnitude displayed is 2.5.

Coastal Water Temperatures

Place Temperature
No Stations Reporting

Nearby Weather Stations

Station Location Temp. Heat Index Dew Point Humidity Wind Precip. Elev Updated Type
NDDOT Wahpeton ND 13 MP 384.5, Mooreton, ND 76 °F 76 °F 71 °F 87% SSE  at  5 mph 0.00 in / hr 962 ft 7:10 PM CDT MADIS
Open Plains ND, Wyndmere, ND 73.6 °F 72 °F 70 °F 87% South  at  1.7 mph - / hr 1056 ft 7:44 PM CDT Normal

Show More Stations Show Fewer Stations